sensor_id;sensor_type;location;lat;lon;timestamp;pressure;altitude;pressure_sealevel;temperature;humidity
81181;BME280;70650;51.408;7.132;2023-11-19T00:00:07;99769.94;;;10.13;97.33
81181;BME280;70650;51.408;7.132;2023-11-19T00:02:39;99757.41;;;10.16;97.43
81181;BME280;70650;51.408;7.132;2023-11-19T00:05:06;99765.50;;;10.13;97.45
81181;BME280;70650;51.408;7.132;2023-11-19T00:07:36;99786.09;;;10.22;97.50
81181;BME280;70650;51.408;7.132;2023-11-19T00:10:02;99789.56;;;10.23;97.60
81181;BME280;70650;51.408;7.132;2023-11-19T00:12:32;99774.31;;;10.28;97.42
81181;BME280;70650;51.408;7.132;2023-11-19T00:14:57;99773.09;;;10.33;97.51
81181;BME280;70650;51.408;7.132;2023-11-19T00:17:22;99776.31;;;10.39;97.48
81181;BME280;70650;51.408;7.132;2023-11-19T00:19:48;99778.63;;;10.43;97.13
81181;BME280;70650;51.408;7.132;2023-11-19T00:22:14;99803.66;;;10.52;97.11
81181;BME280;70650;51.408;7.132;2023-11-19T00:24:39;99792.53;;;10.61;96.73
81181;BME280;70650;51.408;7.132;2023-11-19T00:27:05;99800.44;;;10.61;96.63
81181;BME280;70650;51.408;7.132;2023-11-19T00:29:32;99796.09;;;10.60;97.12
81181;BME280;70650;51.408;7.132;2023-11-19T00:31:58;99786.34;;;10.60;96.83
81181;BME280;70650;51.408;7.132;2023-11-19T00:34:23;99800.63;;;10.72;96.85
81181;BME280;70650;51.408;7.132;2023-11-19T00:36:49;99807.38;;;10.76;96.65
81181;BME280;70650;51.408;7.132;2023-11-19T00:39:15;99802.16;;;10.89;96.50
81181;BME280;70650;51.408;7.132;2023-11-19T00:41:40;99802.66;;;10.96;96.28
81181;BME280;70650;51.408;7.132;2023-11-19T00:44:05;99794.78;;;10.94;96.56
81181;BME280;70650;51.408;7.132;2023-11-19T00:46:31;99783.91;;;10.99;96.57
81181;BME280;70650;51.408;7.132;2023-11-19T00:48:58;99782.13;;;10.99;96.22
81181;BME280;70650;51.408;7.132;2023-11-19T00:51:25;99778.72;;;10.97;96.64
81181;BME280;70650;51.408;7.132;2023-11-19T00:53:51;99788.25;;;11.00;96.49
81181;BME280;70650;51.408;7.132;2023-11-19T00:56:18;99780.25;;;11.01;96.66
81181;BME280;70650;51.408;7.132;2023-11-19T00:58:44;99776.19;;;10.96;96.91
81181;BME280;70650;51.408;7.132;2023-11-19T01:01:11;99766.91;;;11.03;96.37
81181;BME280;70650;51.408;7.132;2023-11-19T01:03:37;99758.00;;;11.04;96.44
81181;BME280;70650;51.408;7.132;2023-11-19T01:06:02;99758.28;;;11.13;96.32
81181;BME280;70650;51.408;7.132;2023-11-19T01:08:28;99758.38;;;11.12;96.31
81181;BME280;70650;51.408;7.132;2023-11-19T01:10:53;99762.72;;;11.13;96.54
81181;BME280;70650;51.408;7.132;2023-11-19T01:13:18;99760.81;;;11.15;96.78
81181;BME280;70650;51.408;7.132;2023-11-19T01:15:43;99760.63;;;11.18;96.77
81181;BME280;70650;51.408;7.132;2023-11-19T01:18:09;99764.09;;;11.19;97.35
81181;BME280;70650;51.408;7.132;2023-11-19T01:20:34;99766.34;;;11.25;96.78
81181;BME280;70650;51.408;7.132;2023-11-19T01:23:00;99761.91;;;11.25;96.47
81181;BME280;70650;51.408;7.132;2023-11-19T01:25:25;99759.25;;;11.25;96.49
81181;BME280;70650;51.408;7.132;2023-11-19T01:27:51;99752.47;;;11.21;96.62
81181;BME280;70650;51.408;7.132;2023-11-19T01:30:16;99747.47;;;11.17;96.98
81181;BME280;70650;51.408;7.132;2023-11-19T01:32:41;99756.06;;;11.20;97.00
81181;BME280;70650;51.408;7.132;2023-11-19T01:35:07;99761.69;;;11.28;96.58
81181;BME280;70650;51.408;7.132;2023-11-19T01:37:33;99763.47;;;11.28;96.47
81181;BME280;70650;51.408;7.132;2023-11-19T01:39:59;99761.69;;;11.28;96.60
81181;BME280;70650;51.408;7.132;2023-11-19T01:42:25;99777.38;;;11.31;96.48
81181;BME280;70650;51.408;7.132;2023-11-19T01:44:59;99758.31;;;11.26;96.68
81181;BME280;70650;51.408;7.132;2023-11-19T01:47:25;99758.13;;;11.29;96.54
81181;BME280;70650;51.408;7.132;2023-11-19T01:49:52;99757.47;;;11.38;95.93
81181;BME280;70650;51.408;7.132;2023-11-19T01:52:18;99756.53;;;11.39;96.26
81181;BME280;70650;51.408;7.132;2023-11-19T01:54:45;99748.81;;;11.36;96.25
81181;BME280;70650;51.408;7.132;2023-11-19T01:57:11;99753.16;;;11.37;96.54
81181;BME280;70650;51.408;7.132;2023-11-19T01:59:37;99750.59;;;11.36;96.54
81181;BME280;70650;51.408;7.132;2023-11-19T02:02:03;99752.72;;;11.44;96.13
81181;BME280;70650;51.408;7.132;2023-11-19T02:04:30;99763.56;;;11.53;95.47
81181;BME280;70650;51.408;7.132;2023-11-19T02:06:58;99746.72;;;11.54;95.53
81181;BME280;70650;51.408;7.132;2023-11-19T02:09:23;99752.31;;;11.50;96.00
81181;BME280;70650;51.408;7.132;2023-11-19T02:11:48;99751.59;;;11.48;96.11
81181;BME280;70650;51.408;7.132;2023-11-19T02:14:17;99748.72;;;11.51;95.76
81181;BME280;70650;51.408;7.132;2023-11-19T02:16:44;99757.97;;;11.58;95.58
81181;BME280;70650;51.408;7.132;2023-11-19T02:19:09;99719.09;;;11.58;95.65
81181;BME280;70650;51.408;7.132;2023-11-19T02:21:36;99689.97;;;11.58;95.82
81181;BME280;70650;51.408;7.132;2023-11-19T02:24:06;99691.97;;;11.55;95.88
81181;BME280;70650;51.408;7.132;2023-11-19T02:26:43;99685.28;;;11.62;95.52
81181;BME280;70650;51.408;7.132;2023-11-19T02:29:12;99691.88;;;11.69;94.80
81181;BME280;70650;51.408;7.132;2023-11-19T02:31:38;99696.09;;;11.72;94.77
81181;BME280;70650;51.408;7.132;2023-11-19T02:34:03;99696.53;;;11.65;95.24
81181;BME280;70650;51.408;7.132;2023-11-19T02:36:29;99688.69;;;11.64;95.13
81181;BME280;70650;51.408;7.132;2023-11-19T02:38:54;99675.44;;;11.64;94.73
81181;BME280;70650;51.408;7.132;2023-11-19T02:41:20;99685.63;;;11.57;95.57
81181;BME280;70650;51.408;7.132;2023-11-19T02:43:45;99705.63;;;11.61;95.13
81181;BME280;70650;51.408;7.132;2023-11-19T02:46:13;99690.81;;;11.72;94.97
81181;BME280;70650;51.408;7.132;2023-11-19T02:48:39;99689.97;;;11.71;95.30
81181;BME280;70650;51.408;7.132;2023-11-19T02:51:05;99693.97;;;11.77;95.07
81181;BME280;70650;51.408;7.132;2023-11-19T02:53:34;99691.97;;;11.80;94.63
81181;BME280;70650;51.408;7.132;2023-11-19T02:55:59;99695.47;;;11.81;94.88
81181;BME280;70650;51.408;7.132;2023-11-19T02:58:37;99693.59;;;11.83;94.51
81181;BME280;70650;51.408;7.132;2023-11-19T03:01:02;99699.72;;;11.83;94.42
81181;BME280;70650;51.408;7.132;2023-11-19T03:03:38;99689.97;;;11.84;94.57
81181;BME280;70650;51.408;7.132;2023-11-19T03:06:05;99683.84;;;11.83;94.92
81181;BME280;70650;51.408;7.132;2023-11-19T03:08:32;99685.66;;;11.83;94.83
81181;BME280;70650;51.408;7.132;2023-11-19T03:10:58;99689.13;;;11.83;94.83
81181;BME280;70650;51.408;7.132;2023-11-19T03:13:24;99679.50;;;11.82;94.85
81181;BME280;70650;51.408;7.132;2023-11-19T03:15:49;99686.16;;;11.88;94.64
81181;BME280;70650;51.408;7.132;2023-11-19T03:18:14;99691.34;;;11.89;94.31
81181;BME280;70650;51.408;7.132;2023-11-19T03:20:40;99686.69;;;11.93;94.14
81181;BME280;70650;51.408;7.132;2023-11-19T03:23:05;99679.47;;;11.95;94.04
81181;BME280;70650;51.408;7.132;2023-11-19T03:25:31;99662.75;;;11.94;93.47
81181;BME280;70650;51.408;7.132;2023-11-19T03:28:02;99660.63;;;12.00;93.42
81181;BME280;70650;51.408;7.132;2023-11-19T03:30:28;99669.09;;;12.05;92.49
81181;BME280;70650;51.408;7.132;2023-11-19T03:32:58;99673.66;;;12.03;92.72
81181;BME280;70650;51.408;7.132;2023-11-19T03:35:24;99674.91;;;12.10;92.32
81181;BME280;70650;51.408;7.132;2023-11-19T03:37:50;99679.44;;;12.08;91.63
81181;BME280;70650;51.408;7.132;2023-11-19T03:40:16;99679.97;;;12.13;90.96
81181;BME280;70650;51.408;7.132;2023-11-19T03:42:41;99682.97;;;12.08;91.38
81181;BME280;70650;51.408;7.132;2023-11-19T03:45:07;99689.75;;;12.00;91.47
81181;BME280;70650;51.408;7.132;2023-11-19T03:47:34;99693.25;;;12.00;91.90
81181;BME280;70650;51.408;7.132;2023-11-19T03:49:59;99683.91;;;12.07;89.93
81181;BME280;70650;51.408;7.132;2023-11-19T03:52:25;99687.75;;;12.03;90.89
81181;BME280;70650;51.408;7.132;2023-11-19T03:54:52;99693.56;;;11.96;91.27
81181;BME280;70650;51.408;7.132;2023-11-19T03:57:17;99692.84;;;11.93;91.31
81181;BME280;70650;51.408;7.132;2023-11-19T03:59:43;99692.97;;;11.92;91.66
81181;BME280;70650;51.408;7.132;2023-11-19T04:02:09;99686.06;;;11.89;91.84
81181;BME280;70650;51.408;7.132;2023-11-19T04:04:35;99700.47;;;11.85;91.84
81181;BME280;70650;51.408;7.132;2023-11-19T04:07:01;99688.81;;;11.88;91.81
81181;BME280;70650;51.408;7.132;2023-11-19T04:09:27;99689.97;;;11.71;93.02
81181;BME280;70650;51.408;7.132;2023-11-19T04:11:53;99689.84;;;11.73;92.81
81181;BME280;70650;51.408;7.132;2023-11-19T04:14:18;99692.31;;;11.63;93.05
81181;BME280;70650;51.408;7.132;2023-11-19T04:16:44;99702.47;;;11.69;92.71
81181;BME280;70650;51.408;7.132;2023-11-19T04:19:10;99691.22;;;11.65;92.48
81181;BME280;70650;51.408;7.132;2023-11-19T04:21:36;99688.69;;;11.64;92.38
81181;BME280;70650;51.408;7.132;2023-11-19T04:24:01;99684.53;;;11.73;90.92
81181;BME280;70650;51.408;7.132;2023-11-19T04:26:27;99685.09;;;11.65;91.22
81181;BME280;70650;51.408;7.132;2023-11-19T04:28:52;99678.84;;;11.66;90.81
81181;BME280;70650;51.408;7.132;2023-11-19T04:31:17;99696.84;;;11.61;91.19
81181;BME280;70650;51.408;7.132;2023-11-19T04:33:43;99698.00;;;11.57;91.35
81181;BME280;70650;51.408;7.132;2023-11-19T04:36:12;99703.94;;;11.60;90.88
81181;BME280;70650;51.408;7.132;2023-11-19T04:38:39;99699.38;;;11.62;90.60
81181;BME280;70650;51.408;7.132;2023-11-19T04:41:05;99704.16;;;11.57;90.79
81181;BME280;70650;51.408;7.132;2023-11-19T04:43:32;99700.97;;;11.52;90.93
81181;BME280;70650;51.408;7.132;2023-11-19T04:45:57;99707.53;;;11.59;90.06
81181;BME280;70650;51.408;7.132;2023-11-19T04:48:23;99697.47;;;11.52;90.42
81181;BME280;70650;51.408;7.132;2023-11-19T04:50:49;99699.13;;;11.40;91.06
81181;BME280;70650;51.408;7.132;2023-11-19T04:53:16;99709.41;;;11.45;91.11
81181;BME280;70650;51.408;7.132;2023-11-19T04:55:41;99696.28;;;11.43;91.00
81181;BME280;70650;51.408;7.132;2023-11-19T04:58:07;99689.94;;;11.46;90.28
81181;BME280;70650;51.408;7.132;2023-11-19T05:00:32;99699.69;;;11.45;90.26
81181;BME280;70650;51.408;7.132;2023-11-19T05:02:58;99704.66;;;11.50;89.69
81181;BME280;70650;51.408;7.132;2023-11-19T05:05:23;99710.25;;;11.45;89.98
81181;BME280;70650;51.408;7.132;2023-11-19T05:07:49;99713.38;;;11.52;89.79
81181;BME280;70650;51.408;7.132;2023-11-19T05:10:14;99715.78;;;11.55;89.29
81181;BME280;70650;51.408;7.132;2023-11-19T05:12:39;99702.97;;;11.49;89.51
81181;BME280;70650;51.408;7.132;2023-11-19T05:15:05;99711.88;;;11.48;90.19
81181;BME280;70650;51.408;7.132;2023-11-19T05:17:30;99710.31;;;11.58;89.23
81181;BME280;70650;51.408;7.132;2023-11-19T05:19:56;99710.31;;;11.58;89.50
81181;BME280;70650;51.408;7.132;2023-11-19T05:22:21;99712.19;;;11.56;89.62
81181;BME280;70650;51.408;7.132;2023-11-19T05:24:47;99712.41;;;11.53;89.06
81181;BME280;70650;51.408;7.132;2023-11-19T05:27:13;99708.56;;;11.57;88.53
81181;BME280;70650;51.408;7.132;2023-11-19T05:29:39;99713.69;;;11.60;87.68
81181;BME280;70650;51.408;7.132;2023-11-19T05:32:06;99714.94;;;11.54;87.93
81181;BME280;70650;51.408;7.132;2023-11-19T05:34:32;99698.34;;;11.52;88.40
81181;BME280;70650;51.408;7.132;2023-11-19T05:36:57;99713.25;;;11.53;88.21
81181;BME280;70650;51.408;7.132;2023-11-19T05:39:23;99703.63;;;11.52;88.36
81181;BME280;70650;51.408;7.132;2023-11-19T05:41:49;99714.09;;;11.54;88.37
81181;BME280;70650;51.408;7.132;2023-11-19T05:44:14;99702.25;;;11.47;88.88
81181;BME280;70650;51.408;7.132;2023-11-19T05:46:40;99703.81;;;11.49;88.78
81181;BME280;70650;51.408;7.132;2023-11-19T05:49:08;99713.56;;;11.49;88.74
81181;BME280;70650;51.408;7.132;2023-11-19T05:51:37;99716.88;;;11.52;88.20
81181;BME280;70650;51.408;7.132;2023-11-19T05:54:04;99715.06;;;11.53;88.59
81181;BME280;70650;51.408;7.132;2023-11-19T05:56:29;99718.56;;;11.53;88.67
81181;BME280;70650;51.408;7.132;2023-11-19T05:58:57;99723.53;;;11.58;87.15
81181;BME280;70650;51.408;7.132;2023-11-19T06:01:24;99732.22;;;11.60;87.42
81181;BME280;70650;51.408;7.132;2023-11-19T06:03:49;99723.63;;;11.56;87.20
81181;BME280;70650;51.408;7.132;2023-11-19T06:06:15;99725.00;;;11.49;87.27
81181;BME280;70650;51.408;7.132;2023-11-19T06:08:40;99718.56;;;11.53;86.78
81181;BME280;70650;51.408;7.132;2023-11-19T06:11:06;99729.44;;;11.61;85.75
81181;BME280;70650;51.408;7.132;2023-11-19T06:13:31;99727.75;;;11.48;86.83
81181;BME280;70650;51.408;7.132;2023-11-19T06:15:56;99724.16;;;11.49;86.95
81181;BME280;70650;51.408;7.132;2023-11-19T06:18:21;99720.31;;;11.40;87.08
81181;BME280;70650;51.408;7.132;2023-11-19T06:20:48;99715.13;;;11.38;86.23
81181;BME280;70650;51.408;7.132;2023-11-19T06:23:15;99716.22;;;11.49;85.88
81181;BME280;70650;51.408;7.132;2023-11-19T06:25:40;99714.28;;;11.51;86.02
81181;BME280;70650;51.408;7.132;2023-11-19T06:28:05;99719.03;;;11.46;86.28
81181;BME280;70650;51.408;7.132;2023-11-19T06:30:31;99720.00;;;11.45;85.91
81181;BME280;70650;51.408;7.132;2023-11-19T06:32:58;99722.34;;;11.36;86.25
81181;BME280;70650;51.408;7.132;2023-11-19T06:35:26;99716.28;;;11.34;86.07
81181;BME280;70650;51.408;7.132;2023-11-19T06:37:52;99735.34;;;11.39;85.24
81181;BME280;70650;51.408;7.132;2023-11-19T06:40:17;99720.97;;;11.44;84.09
81181;BME280;70650;51.408;7.132;2023-11-19T06:42:42;99729.13;;;11.40;84.02
81181;BME280;70650;51.408;7.132;2023-11-19T06:45:08;99734.63;;;11.37;83.24
81181;BME280;70650;51.408;7.132;2023-11-19T06:47:34;99737.97;;;11.27;83.83
81181;BME280;70650;51.408;7.132;2023-11-19T06:49:59;99741.56;;;11.26;83.72
81181;BME280;70650;51.408;7.132;2023-11-19T06:52:25;99734.59;;;11.25;83.93
81181;BME280;70650;51.408;7.132;2023-11-19T06:54:50;99750.59;;;11.23;84.08
81181;BME280;70650;51.408;7.132;2023-11-19T06:57:16;99743.91;;;11.18;83.89
81181;BME280;70650;51.408;7.132;2023-11-19T06:59:42;99746.44;;;11.19;83.84
81181;BME280;70650;51.408;7.132;2023-11-19T07:02:07;99760.63;;;11.18;83.39
81181;BME280;70650;51.408;7.132;2023-11-19T07:04:32;99755.72;;;11.12;83.85
81181;BME280;70650;51.408;7.132;2023-11-19T07:07:00;99759.69;;;11.05;84.44
81181;BME280;70650;51.408;7.132;2023-11-19T07:09:26;99755.47;;;11.02;84.61
81181;BME280;70650;51.408;7.132;2023-11-19T07:11:52;99758.41;;;10.98;84.46
81181;BME280;70650;51.408;7.132;2023-11-19T07:14:18;99759.25;;;10.98;84.60
81181;BME280;70650;51.408;7.132;2023-11-19T07:16:44;99760.09;;;10.99;84.42
81181;BME280;70650;51.408;7.132;2023-11-19T07:19:09;99765.91;;;10.91;84.84
81181;BME280;70650;51.408;7.132;2023-11-19T07:21:35;99760.50;;;10.93;84.50
81181;BME280;70650;51.408;7.132;2023-11-19T07:24:04;99769.50;;;10.90;84.98
81181;BME280;70650;51.408;7.132;2023-11-19T07:26:30;99770.44;;;10.89;84.55
81181;BME280;70650;51.408;7.132;2023-11-19T07:28:55;99764.28;;;10.88;84.40
81181;BME280;70650;51.408;7.132;2023-11-19T07:31:21;99769.69;;;10.87;84.38
81181;BME280;70650;51.408;7.132;2023-11-19T07:33:46;99762.59;;;10.87;83.92
81181;BME280;70650;51.408;7.132;2023-11-19T07:36:13;99762.50;;;10.89;83.93
81181;BME280;70650;51.408;7.132;2023-11-19T07:38:38;99772.34;;;10.87;83.49
81181;BME280;70650;51.408;7.132;2023-11-19T07:41:05;99782.81;;;10.88;83.34
81181;BME280;70650;51.408;7.132;2023-11-19T07:43:31;99787.34;;;10.86;83.26
81181;BME280;70650;51.408;7.132;2023-11-19T07:45:57;99800.03;;;10.81;83.26
81181;BME280;70650;51.408;7.132;2023-11-19T07:48:24;99810.31;;;10.86;82.86
81181;BME280;70650;51.408;7.132;2023-11-19T07:50:50;99798.78;;;10.87;82.60
81181;BME280;70650;51.408;7.132;2023-11-19T07:53:19;99804.06;;;10.87;82.76
81181;BME280;70650;51.408;7.132;2023-11-19T07:55:45;99808.50;;;10.86;82.59
81181;BME280;70650;51.408;7.132;2023-11-19T07:58:11;99823.25;;;10.91;82.37
81181;BME280;70650;51.408;7.132;2023-11-19T08:00:37;99825.34;;;10.85;82.86
81181;BME280;70650;51.408;7.132;2023-11-19T08:03:03;99819.19;;;10.85;83.17
81181;BME280;70650;51.408;7.132;2023-11-19T08:05:29;99822.47;;;10.88;82.95
81181;BME280;70650;51.408;7.132;2023-11-19T08:07:55;99818.44;;;10.83;83.17
81181;BME280;70650;51.408;7.132;2023-11-19T08:10:20;99821.00;;;10.84;83.34
81181;BME280;70650;51.408;7.132;2023-11-19T08:12:45;99819.44;;;10.95;82.44
81181;BME280;70650;51.408;7.132;2023-11-19T08:15:11;99830.50;;;11.01;82.43
81181;BME280;70650;51.408;7.132;2023-11-19T08:17:37;99827.00;;;11.01;82.18
81181;BME280;70650;51.408;7.132;2023-11-19T08:20:02;99840.97;;;11.03;81.95
81181;BME280;70650;51.408;7.132;2023-11-19T08:22:30;99837.38;;;11.04;82.24
81181;BME280;70650;51.408;7.132;2023-11-19T08:24:55;99844.28;;;11.06;82.29
81181;BME280;70650;51.408;7.132;2023-11-19T08:27:20;99856.47;;;11.09;82.43
81181;BME280;70650;51.408;7.132;2023-11-19T08:29:54;99849.38;;;11.09;82.15
81181;BME280;70650;51.408;7.132;2023-11-19T08:32:26;99845.88;;;11.09;81.94
81181;BME280;70650;51.408;7.132;2023-11-19T08:34:53;99844.19;;;11.08;82.15
81181;BME280;70650;51.408;7.132;2023-11-19T08:37:18;99840.25;;;11.01;82.16
81181;BME280;70650;51.408;7.132;2023-11-19T08:39:49;99834.72;;;11.04;81.92
81181;BME280;70650;51.408;7.132;2023-11-19T08:42:15;99838.13;;;11.06;81.74
81181;BME280;70650;51.408;7.132;2023-11-19T08:44:41;99839.72;;;11.08;82.03
81181;BME280;70650;51.408;7.132;2023-11-19T08:47:09;99845.69;;;11.12;82.13
81181;BME280;70650;51.408;7.132;2023-11-19T08:49:34;99833.94;;;11.16;81.79
81181;BME280;70650;51.408;7.132;2023-11-19T08:52:00;99836.28;;;11.21;81.34
81181;BME280;70650;51.408;7.132;2023-11-19T08:54:25;99829.00;;;11.24;81.76
81181;BME280;70650;51.408;7.132;2023-11-19T08:56:50;99838.75;;;11.24;81.39
81181;BME280;70650;51.408;7.132;2023-11-19T08:59:16;99843.19;;;11.23;81.47
81181;BME280;70650;51.408;7.132;2023-11-19T09:01:42;99836.19;;;11.22;81.47
81181;BME280;70650;51.408;7.132;2023-11-19T09:04:07;99851.66;;;11.28;80.89
81181;BME280;70650;51.408;7.132;2023-11-19T09:06:33;99850.63;;;11.31;81.50
81181;BME280;70650;51.408;7.132;2023-11-19T09:08:58;99860.94;;;11.35;80.62
81181;BME280;70650;51.408;7.132;2023-11-19T09:11:27;99840.38;;;11.39;80.71
81181;BME280;70650;51.408;7.132;2023-11-19T09:13:53;99841.38;;;11.51;80.86
81181;BME280;70650;51.408;7.132;2023-11-19T09:16:18;99849.53;;;11.48;79.92
81181;BME280;70650;51.408;7.132;2023-11-19T09:18:43;99849.88;;;11.56;79.84
81181;BME280;70650;51.408;7.132;2023-11-19T09:21:12;99862.91;;;11.59;79.53
81181;BME280;70650;51.408;7.132;2023-11-19T09:23:38;99846.06;;;11.60;79.74
81181;BME280;70650;51.408;7.132;2023-11-19T09:26:08;99859.13;;;11.63;79.85
81181;BME280;70650;51.408;7.132;2023-11-19T09:28:33;99857.72;;;11.57;79.75
81181;BME280;70650;51.408;7.132;2023-11-19T09:30:59;99844.28;;;11.60;79.86
81181;BME280;70650;51.408;7.132;2023-11-19T09:33:24;99853.91;;;11.61;79.82
81181;BME280;70650;51.408;7.132;2023-11-19T09:35:50;99863.53;;;11.62;79.71
81181;BME280;70650;51.408;7.132;2023-11-19T09:38:16;99841.75;;;11.72;79.95
81181;BME280;70650;51.408;7.132;2023-11-19T09:40:41;99850.97;;;11.66;79.42
81181;BME280;70650;51.408;7.132;2023-11-19T09:43:07;99856.47;;;11.63;79.18
81181;BME280;70650;51.408;7.132;2023-11-19T09:46:02;99842.31;;;11.77;78.73
81181;BME280;70650;51.408;7.132;2023-11-19T09:48:32;99848.25;;;11.80;78.42
81181;BME280;70650;51.408;7.132;2023-11-19T09:50:58;99857.03;;;11.81;78.32
81181;BME280;70650;51.408;7.132;2023-11-19T09:53:24;99835.34;;;11.88;77.85
81181;BME280;70650;51.408;7.132;2023-11-19T09:55:50;99842.03;;;11.81;78.44
81181;BME280;70650;51.408;7.132;2023-11-19T09:58:16;99856.97;;;11.82;77.97
81181;BME280;70650;51.408;7.132;2023-11-19T10:00:42;99843.88;;;11.79;78.21
81181;BME280;70650;51.408;7.132;2023-11-19T10:03:11;99845.09;;;11.88;78.13
81181;BME280;70650;51.408;7.132;2023-11-19T10:05:37;99841.09;;;11.95;77.46
81181;BME280;70650;51.408;7.132;2023-11-19T10:08:04;99846.28;;;11.97;76.68
81181;BME280;70650;51.408;7.132;2023-11-19T10:10:30;99838.13;;;12.00;77.51
81181;BME280;70650;51.408;7.132;2023-11-19T10:12:55;99845.53;;;11.94;77.68
81181;BME280;70650;51.408;7.132;2023-11-19T10:15:21;99837.28;;;11.99;77.29
81181;BME280;70650;51.408;7.132;2023-11-19T10:17:48;99828.50;;;11.99;77.50
81181;BME280;70650;51.408;7.132;2023-11-19T10:20:13;99835.59;;;11.98;76.62
81181;BME280;70650;51.408;7.132;2023-11-19T10:22:39;99838.97;;;12.00;76.24
81181;BME280;70650;51.408;7.132;2023-11-19T10:25:25;99838.88;;;12.02;76.52
81181;BME280;70650;51.408;7.132;2023-11-19T10:27:52;99829.75;;;11.93;76.76
81181;BME280;70650;51.408;7.132;2023-11-19T10:33:04;99834.50;;;11.88;77.17
81181;BME280;70650;51.408;7.132;2023-11-19T10:35:34;99841.81;;;11.84;77.57
81181;BME280;70650;51.408;7.132;2023-11-19T10:38:01;99839.06;;;11.86;77.01
81181;BME280;70650;51.408;7.132;2023-11-19T10:40:39;99834.63;;;11.86;76.70
81181;BME280;70650;51.408;7.132;2023-11-19T10:43:08;99827.31;;;11.90;77.65
81181;BME280;70650;51.408;7.132;2023-11-19T10:45:37;99823.06;;;11.87;76.67
81181;BME280;70650;51.408;7.132;2023-11-19T10:48:04;99822.13;;;11.88;76.55
81181;BME280;70650;51.408;7.132;2023-11-19T10:50:42;99824.03;;;11.86;76.79
81181;BME280;70650;51.408;7.132;2023-11-19T10:53:11;99820.97;;;11.92;76.98
81181;BME280;70650;51.408;7.132;2023-11-19T10:55:41;99820.00;;;11.93;76.59
81181;BME280;70650;51.408;7.132;2023-11-19T10:58:09;99813.09;;;11.91;76.83
81181;BME280;70650;51.408;7.132;2023-11-19T11:00:47;99826.16;;;11.94;76.28
81181;BME280;70650;51.408;7.132;2023-11-19T11:03:18;99824.34;;;11.94;76.36
81181;BME280;70650;51.408;7.132;2023-11-19T11:05:49;99810.97;;;11.96;76.32
81181;BME280;70650;51.408;7.132;2023-11-19T11:08:14;99813.31;;;12.01;75.81
81181;BME280;70650;51.408;7.132;2023-11-19T11:10:44;99807.00;;;12.03;75.71
81181;BME280;70650;51.408;7.132;2023-11-19T11:13:10;99819.50;;;12.14;76.00
81181;BME280;70650;51.408;7.132;2023-11-19T11:15:37;99816.84;;;12.14;75.24
81181;BME280;70650;51.408;7.132;2023-11-19T11:18:02;99806.56;;;12.22;75.21
81181;BME280;70650;51.408;7.132;2023-11-19T11:20:30;99799.13;;;12.27;74.70
81181;BME280;70650;51.408;7.132;2023-11-19T11:25:47;99806.66;;;12.33;75.09
81181;BME280;70650;51.408;7.132;2023-11-19T11:31:35;99805.69;;;12.34;73.73
81181;BME280;70650;51.408;7.132;2023-11-19T11:36:49;99803.69;;;12.38;72.99
81181;BME280;70650;51.408;7.132;2023-11-19T11:39:22;99812.25;;;12.41;72.99
81181;BME280;70650;51.408;7.132;2023-11-19T11:45:08;99800.09;;;12.76;70.92
81181;BME280;70650;51.408;7.132;2023-11-19T11:50:15;99790.22;;;13.14;70.37
81181;BME280;70650;51.408;7.132;2023-11-19T11:55:27;99783.13;;;13.39;69.71
81181;BME280;70650;51.408;7.132;2023-11-19T11:57:57;99777.66;;;13.29;69.87
81181;BME280;70650;51.408;7.132;2023-11-19T12:00:26;99793.56;;;12.92;70.36
81181;BME280;70650;51.408;7.132;2023-11-19T12:02:54;99780.69;;;12.75;70.55
81181;BME280;70650;51.408;7.132;2023-11-19T12:05:21;99778.16;;;12.73;70.41
81181;BME280;70650;51.408;7.132;2023-11-19T12:08:07;99777.97;;;12.64;70.39
81181;BME280;70650;51.408;7.132;2023-11-19T12:10:45;99767.34;;;12.64;70.44
81181;BME280;70650;51.408;7.132;2023-11-19T12:13:12;99763.16;;;12.85;69.74
81181;BME280;70650;51.408;7.132;2023-11-19T12:18:30;99764.97;;;13.09;69.60
81181;BME280;70650;51.408;7.132;2023-11-19T12:20:58;99768.13;;;12.90;70.40
81181;BME280;70650;51.408;7.132;2023-11-19T12:23:44;99766.88;;;12.83;70.26
81181;BME280;70650;51.408;7.132;2023-11-19T12:26:21;99766.97;;;12.81;70.60
81181;BME280;70650;51.408;7.132;2023-11-19T12:28:57;99778.41;;;12.94;69.93
81181;BME280;70650;51.408;7.132;2023-11-19T12:31:23;99750.47;;;12.78;69.57
81181;BME280;70650;51.408;7.132;2023-11-19T12:33:51;99753.84;;;12.80;70.40
81181;BME280;70650;51.408;7.132;2023-11-19T12:36:16;99760.81;;;12.81;70.48
81181;BME280;70650;51.408;7.132;2023-11-19T12:38:42;99746.59;;;12.82;70.64
81181;BME280;70650;51.408;7.132;2023-11-19T12:41:10;99744.06;;;12.80;70.81
81181;BME280;70650;51.408;7.132;2023-11-19T12:43:37;99734.88;;;12.73;71.26
81181;BME280;70650;51.408;7.132;2023-11-19T12:46:16;99733.28;;;12.70;71.64
81181;BME280;70650;51.408;7.132;2023-11-19T12:48:42;99726.00;;;12.61;71.79
81181;BME280;70650;51.408;7.132;2023-11-19T12:51:07;99723.47;;;12.60;71.73
81181;BME280;70650;51.408;7.132;2023-11-19T12:53:47;99718.81;;;12.51;72.15
81181;BME280;70650;51.408;7.132;2023-11-19T12:56:13;99738.34;;;12.50;71.88
81181;BME280;70650;51.408;7.132;2023-11-19T12:58:39;99726.25;;;12.45;71.94
81181;BME280;70650;51.408;7.132;2023-11-19T13:01:06;99725.28;;;12.46;70.92
81181;BME280;70650;51.408;7.132;2023-11-19T13:03:36;99737.41;;;12.38;72.80
81181;BME280;70650;51.408;7.132;2023-11-19T13:06:07;99747.09;;;12.26;73.87
81181;BME280;70650;51.408;7.132;2023-11-19T13:08:44;99744.78;;;12.09;75.59
81181;BME280;70650;51.408;7.132;2023-11-19T13:11:10;99739.91;;;12.03;75.89
81181;BME280;70650;51.408;7.132;2023-11-19T13:13:58;99749.09;;;11.84;77.23
81181;BME280;70650;51.408;7.132;2023-11-19T13:16:29;99767.00;;;11.81;76.75
81181;BME280;70650;51.408;7.132;2023-11-19T13:18:54;99772.91;;;11.72;77.12
81181;BME280;70650;51.408;7.132;2023-11-19T13:21:20;99766.03;;;11.69;77.63